sensor_id;sensor_type;location;lat;lon;timestamp;P1;durP1;ratioP1;P2;durP2;ratioP2
6561;SDS011;3314;50.890;4.722;2022-12-07T00:01:20;13.6;;;5.8;;
6561;SDS011;3314;50.890;4.722;2022-12-07T00:03:20;15.1;;;5.3;;
6561;SDS011;3314;50.890;4.722;2022-12-07T00:05:19;14.0;;;5.4;;
6561;SDS011;3314;50.890;4.722;2022-12-07T00:07:19;19.4;;;5.7;;
6561;SDS011;3314;50.890;4.722;2022-12-07T00:09:19;13.5;;;5.5;;
6561;SDS011;3314;50.890;4.722;2022-12-07T00:11:19;15.3;;;5.3;;
6561;SDS011;3314;50.890;4.722;2022-12-07T00:13:19;14.5;;;5.4;;
6561;SDS011;3314;50.890;4.722;2022-12-07T00:15:19;15.8;;;6.0;;
6561;SDS011;3314;50.890;4.722;2022-12-07T00:17:19;17.3;;;5.9;;
6561;SDS011;3314;50.890;4.722;2022-12-07T00:19:19;12.7;;;5.7;;
6561;SDS011;3314;50.890;4.722;2022-12-07T00:21:20;16.7;;;5.7;;
6561;SDS011;3314;50.890;4.722;2022-12-07T00:23:20;12.7;;;5.6;;
6561;SDS011;3314;50.890;4.722;2022-12-07T00:25:20;16.0;;;5.6;;
6561;SDS011;3314;50.890;4.722;2022-12-07T00:27:19;16.6;;;5.7;;
6561;SDS011;3314;50.890;4.722;2022-12-07T00:29:20;13.5;;;5.9;;
6561;SDS011;3314;50.890;4.722;2022-12-07T00:31:20;15.5;;;5.5;;
6561;SDS011;3314;50.890;4.722;2022-12-07T00:33:20;14.7;;;5.8;;
6561;SDS011;3314;50.890;4.722;2022-12-07T00:35:20;12.0;;;5.0;;
6561;SDS011;3314;50.890;4.722;2022-12-07T00:37:19;15.5;;;5.9;;
6561;SDS011;3314;50.890;4.722;2022-12-07T00:39:19;14.6;;;6.1;;
6561;SDS011;3314;50.890;4.722;2022-12-07T00:41:19;13.1;;;4.9;;
6561;SDS011;3314;50.890;4.722;2022-12-07T00:43:19;13.4;;;5.5;;
6561;SDS011;3314;50.890;4.722;2022-12-07T00:45:19;12.1;;;4.9;;
6561;SDS011;3314;50.890;4.722;2022-12-07T00:47:18;14.6;;;4.8;;
6561;SDS011;3314;50.890;4.722;2022-12-07T00:49:18;15.4;;;6.2;;
6561;SDS011;3314;50.890;4.722;2022-12-07T00:51:18;17.1;;;6.1;;
6561;SDS011;3314;50.890;4.722;2022-12-07T00:53:18;16.6;;;6.1;;
6561;SDS011;3314;50.890;4.722;2022-12-07T00:55:18;12.9;;;5.1;;
6561;SDS011;3314;50.890;4.722;2022-12-07T00:57:18;18.1;;;5.6;;
6561;SDS011;3314;50.890;4.722;2022-12-07T00:59:17;13.1;;;5.7;;
6561;SDS011;3314;50.890;4.722;2022-12-07T01:01:08;16.6;;;5.9;;
6561;SDS011;3314;50.890;4.722;2022-12-07T01:03:08;19.7;;;5.6;;
6561;SDS011;3314;50.890;4.722;2022-12-07T01:05:08;16.5;;;5.8;;
6561;SDS011;3314;50.890;4.722;2022-12-07T01:07:08;16.5;;;5.9;;
6561;SDS011;3314;50.890;4.722;2022-12-07T01:09:08;12.9;;;5.5;;
6561;SDS011;3314;50.890;4.722;2022-12-07T01:11:09;14.0;;;5.3;;
6561;SDS011;3314;50.890;4.722;2022-12-07T01:13:10;16.9;;;5.8;;
6561;SDS011;3314;50.890;4.722;2022-12-07T01:15:10;17.3;;;6.5;;
6561;SDS011;3314;50.890;4.722;2022-12-07T01:17:10;17.5;;;5.6;;
6561;SDS011;3314;50.890;4.722;2022-12-07T01:19:09;16.2;;;6.3;;
6561;SDS011;3314;50.890;4.722;2022-12-07T01:21:10;16.6;;;6.7;;
6561;SDS011;3314;50.890;4.722;2022-12-07T01:23:10;15.1;;;5.4;;
6561;SDS011;3314;50.890;4.722;2022-12-07T01:25:11;17.9;;;6.3;;
6561;SDS011;3314;50.890;4.722;2022-12-07T01:27:10;15.2;;;5.7;;
6561;SDS011;3314;50.890;4.722;2022-12-07T01:29:10;13.5;;;6.2;;
6561;SDS011;3314;50.890;4.722;2022-12-07T01:31:11;17.3;;;6.5;;
6561;SDS011;3314;50.890;4.722;2022-12-07T01:33:00;14.2;;;6.1;;
6561;SDS011;3314;50.890;4.722;2022-12-07T01:35:00;15.8;;;6.1;;
6561;SDS011;3314;50.890;4.722;2022-12-07T01:37:00;16.9;;;6.6;;
6561;SDS011;3314;50.890;4.722;2022-12-07T01:39:00;15.9;;;6.6;;
6561;SDS011;3314;50.890;4.722;2022-12-07T01:41:01;17.2;;;6.6;;
6561;SDS011;3314;50.890;4.722;2022-12-07T01:43:00;18.5;;;6.2;;
6561;SDS011;3314;50.890;4.722;2022-12-07T01:45:31;14.3;;;5.9;;
6561;SDS011;3314;50.890;4.722;2022-12-07T01:46:58;12.3;;;6.0;;
6561;SDS011;3314;50.890;4.722;2022-12-07T01:48:58;16.5;;;6.4;;
6561;SDS011;3314;50.890;4.722;2022-12-07T01:51:00;14.4;;;5.9;;
6561;SDS011;3314;50.890;4.722;2022-12-07T01:53:01;14.2;;;6.8;;
6561;SDS011;3314;50.890;4.722;2022-12-07T01:55:04;14.3;;;5.3;;
6561;SDS011;3314;50.890;4.722;2022-12-07T01:57:04;15.5;;;6.4;;
6561;SDS011;3314;50.890;4.722;2022-12-07T01:58:55;16.8;;;7.3;;
6561;SDS011;3314;50.890;4.722;2022-12-07T02:00:56;15.0;;;6.1;;
6561;SDS011;3314;50.890;4.722;2022-12-07T02:02:58;20.3;;;7.1;;
6561;SDS011;3314;50.890;4.722;2022-12-07T02:05:01;19.5;;;7.3;;
6561;SDS011;3314;50.890;4.722;2022-12-07T02:07:01;18.0;;;6.9;;
6561;SDS011;3314;50.890;4.722;2022-12-07T02:09:02;14.1;;;6.5;;
6561;SDS011;3314;50.890;4.722;2022-12-07T02:11:03;17.9;;;6.6;;
6561;SDS011;3314;50.890;4.722;2022-12-07T02:12:53;19.1;;;6.8;;
6561;SDS011;3314;50.890;4.722;2022-12-07T02:14:54;22.8;;;8.2;;
6561;SDS011;3314;50.890;4.722;2022-12-07T02:16:58;14.8;;;6.8;;
6561;SDS011;3314;50.890;4.722;2022-12-07T02:19:04;19.7;;;7.8;;
6561;SDS011;3314;50.890;4.722;2022-12-07T02:21:01;16.1;;;6.9;;
6561;SDS011;3314;50.890;4.722;2022-12-07T02:23:03;18.4;;;7.1;;
6561;SDS011;3314;50.890;4.722;2022-12-07T02:24:53;19.5;;;8.9;;
6561;SDS011;3314;50.890;4.722;2022-12-07T02:26:58;20.4;;;8.3;;
6561;SDS011;3314;50.890;4.722;2022-12-07T02:28:54;17.2;;;7.5;;
6561;SDS011;3314;50.890;4.722;2022-12-07T02:30:48;21.0;;;8.1;;
6561;SDS011;3314;50.890;4.722;2022-12-07T02:32:51;24.9;;;8.5;;
6561;SDS011;3314;50.890;4.722;2022-12-07T02:34:54;19.1;;;8.4;;
6561;SDS011;3314;50.890;4.722;2022-12-07T02:36:55;15.8;;;7.3;;
6561;SDS011;3314;50.890;4.722;2022-12-07T02:38:58;18.1;;;8.0;;
6561;SDS011;3314;50.890;4.722;2022-12-07T02:40:48;17.0;;;7.2;;
6561;SDS011;3314;50.890;4.722;2022-12-07T02:42:51;23.0;;;8.0;;
6561;SDS011;3314;50.890;4.722;2022-12-07T02:44:52;15.6;;;7.5;;
6561;SDS011;3314;50.890;4.722;2022-12-07T02:46:54;18.5;;;7.9;;
6561;SDS011;3314;50.890;4.722;2022-12-07T02:48:54;18.3;;;7.7;;
6561;SDS011;3314;50.890;4.722;2022-12-07T02:50:54;19.6;;;7.4;;
6561;SDS011;3314;50.890;4.722;2022-12-07T02:52:54;18.4;;;7.3;;
6561;SDS011;3314;50.890;4.722;2022-12-07T02:54:44;18.7;;;7.8;;
6561;SDS011;3314;50.890;4.722;2022-12-07T02:56:45;18.2;;;7.3;;
6561;SDS011;3314;50.890;4.722;2022-12-07T02:58:49;19.8;;;8.0;;
6561;SDS011;3314;50.890;4.722;2022-12-07T03:00:52;17.5;;;7.9;;
6561;SDS011;3314;50.890;4.722;2022-12-07T03:02:46;24.7;;;8.9;;
6561;SDS011;3314;50.890;4.722;2022-12-07T03:04:52;17.2;;;7.1;;
6561;SDS011;3314;50.890;4.722;2022-12-07T03:06:42;21.1;;;7.7;;
6561;SDS011;3314;50.890;4.722;2022-12-07T03:08:44;18.1;;;7.9;;
6561;SDS011;3314;50.890;4.722;2022-12-07T03:10:46;18.3;;;7.3;;
6561;SDS011;3314;50.890;4.722;2022-12-07T03:12:42;19.7;;;7.7;;
6561;SDS011;3314;50.890;4.722;2022-12-07T03:14:45;19.9;;;8.1;;
6561;SDS011;3314;50.890;4.722;2022-12-07T03:16:47;21.8;;;7.8;;
6561;SDS011;3314;50.890;4.722;2022-12-07T03:18:50;20.8;;;7.8;;
6561;SDS011;3314;50.890;4.722;2022-12-07T03:20:39;18.5;;;8.7;;
6561;SDS011;3314;50.890;4.722;2022-12-07T03:22:40;16.9;;;7.6;;
6561;SDS011;3314;50.890;4.722;2022-12-07T03:24:42;18.6;;;7.9;;
6561;SDS011;3314;50.890;4.722;2022-12-07T03:26:42;16.0;;;7.9;;
6561;SDS011;3314;50.890;4.722;2022-12-07T03:28:45;18.4;;;8.0;;
6561;SDS011;3314;50.890;4.722;2022-12-07T03:30:37;20.8;;;8.1;;
6561;SDS011;3314;50.890;4.722;2022-12-07T03:32:38;19.9;;;7.3;;
6561;SDS011;3314;50.890;4.722;2022-12-07T03:34:40;15.9;;;7.9;;
6561;SDS011;3314;50.890;4.722;2022-12-07T03:36:44;19.1;;;7.2;;
6561;SDS011;3314;50.890;4.722;2022-12-07T03:38:36;16.2;;;6.6;;
6561;SDS011;3314;50.890;4.722;2022-12-07T03:40:39;20.8;;;7.2;;
6561;SDS011;3314;50.890;4.722;2022-12-07T03:42:40;19.1;;;7.2;;
6561;SDS011;3314;50.890;4.722;2022-12-07T03:44:40;18.3;;;7.6;;
6561;SDS011;3314;50.890;4.722;2022-12-07T03:46:41;18.5;;;8.2;;
6561;SDS011;3314;50.890;4.722;2022-12-07T03:48:42;22.1;;;7.5;;
6561;SDS011;3314;50.890;4.722;2022-12-07T03:50:36;16.9;;;7.0;;
6561;SDS011;3314;50.890;4.722;2022-12-07T03:52:39;22.8;;;7.9;;
6561;SDS011;3314;50.890;4.722;2022-12-07T03:54:40;20.5;;;7.8;;
6561;SDS011;3314;50.890;4.722;2022-12-07T03:56:31;15.1;;;7.1;;
6561;SDS011;3314;50.890;4.722;2022-12-07T03:58:31;18.0;;;7.5;;
6561;SDS011;3314;50.890;4.722;2022-12-07T04:00:31;19.1;;;7.8;;
6561;SDS011;3314;50.890;4.722;2022-12-07T04:02:31;17.3;;;7.4;;
6561;SDS011;3314;50.890;4.722;2022-12-07T04:04:31;17.3;;;7.8;;
6561;SDS011;3314;50.890;4.722;2022-12-07T04:06:31;17.4;;;7.6;;
6561;SDS011;3314;50.890;4.722;2022-12-07T04:08:31;27.8;;;7.2;;
6561;SDS011;3314;50.890;4.722;2022-12-07T04:10:31;16.4;;;7.2;;
6561;SDS011;3314;50.890;4.722;2022-12-07T04:12:30;16.6;;;7.1;;
6561;SDS011;3314;50.890;4.722;2022-12-07T04:14:30;16.3;;;7.0;;
6561;SDS011;3314;50.890;4.722;2022-12-07T04:16:30;18.0;;;7.0;;
6561;SDS011;3314;50.890;4.722;2022-12-07T04:18:30;16.8;;;6.4;;
6561;SDS011;3314;50.890;4.722;2022-12-07T04:20:29;19.2;;;7.4;;
6561;SDS011;3314;50.890;4.722;2022-12-07T04:22:29;22.2;;;7.8;;
6561;SDS011;3314;50.890;4.722;2022-12-07T04:24:29;26.1;;;7.7;;
6561;SDS011;3314;50.890;4.722;2022-12-07T04:26:29;16.3;;;7.1;;
6561;SDS011;3314;50.890;4.722;2022-12-07T04:28:29;18.8;;;7.3;;
6561;SDS011;3314;50.890;4.722;2022-12-07T04:30:29;14.1;;;5.9;;
6561;SDS011;3314;50.890;4.722;2022-12-07T04:32:28;14.2;;;5.6;;
6561;SDS011;3314;50.890;4.722;2022-12-07T04:34:28;15.6;;;6.6;;
6561;SDS011;3314;50.890;4.722;2022-12-07T04:36:28;15.3;;;5.7;;
6561;SDS011;3314;50.890;4.722;2022-12-07T04:38:28;17.7;;;6.1;;
6561;SDS011;3314;50.890;4.722;2022-12-07T04:40:27;17.7;;;6.7;;
6561;SDS011;3314;50.890;4.722;2022-12-07T04:42:27;16.2;;;6.1;;
6561;SDS011;3314;50.890;4.722;2022-12-07T04:44:27;15.3;;;6.6;;
6561;SDS011;3314;50.890;4.722;2022-12-07T04:46:28;17.4;;;6.3;;
6561;SDS011;3314;50.890;4.722;2022-12-07T04:48:28;19.6;;;7.1;;
6561;SDS011;3314;50.890;4.722;2022-12-07T04:50:27;17.1;;;6.9;;
6561;SDS011;3314;50.890;4.722;2022-12-07T04:52:27;16.0;;;7.5;;
6561;SDS011;3314;50.890;4.722;2022-12-07T04:54:27;14.6;;;6.0;;
6561;SDS011;3314;50.890;4.722;2022-12-07T04:56:26;17.9;;;7.1;;
6561;SDS011;3314;50.890;4.722;2022-12-07T04:58:26;19.7;;;7.5;;
6561;SDS011;3314;50.890;4.722;2022-12-07T05:00:26;17.0;;;7.5;;
6561;SDS011;3314;50.890;4.722;2022-12-07T05:02:26;15.8;;;6.8;;
6561;SDS011;3314;50.890;4.722;2022-12-07T05:04:26;15.1;;;6.2;;
6561;SDS011;3314;50.890;4.722;2022-12-07T05:06:26;15.8;;;6.4;;
6561;SDS011;3314;50.890;4.722;2022-12-07T05:08:18;20.7;;;6.8;;
6561;SDS011;3314;50.890;4.722;2022-12-07T05:10:18;20.3;;;7.6;;
6561;SDS011;3314;50.890;4.722;2022-12-07T05:12:17;16.8;;;7.5;;
6561;SDS011;3314;50.890;4.722;2022-12-07T05:14:18;19.6;;;7.8;;
6561;SDS011;3314;50.890;4.722;2022-12-07T05:16:18;16.5;;;7.0;;
6561;SDS011;3314;50.890;4.722;2022-12-07T05:18:17;20.2;;;7.6;;
6561;SDS011;3314;50.890;4.722;2022-12-07T05:20:17;18.1;;;7.1;;
6561;SDS011;3314;50.890;4.722;2022-12-07T05:22:17;17.0;;;6.7;;
6561;SDS011;3314;50.890;4.722;2022-12-07T05:24:17;19.5;;;6.6;;
6561;SDS011;3314;50.890;4.722;2022-12-07T05:26:16;18.6;;;7.0;;
6561;SDS011;3314;50.890;4.722;2022-12-07T05:28:16;15.7;;;6.6;;
6561;SDS011;3314;50.890;4.722;2022-12-07T05:30:16;18.0;;;7.7;;
6561;SDS011;3314;50.890;4.722;2022-12-07T05:32:16;13.2;;;5.9;;
6561;SDS011;3314;50.890;4.722;2022-12-07T05:34:15;20.3;;;6.7;;
6561;SDS011;3314;50.890;4.722;2022-12-07T05:36:15;13.5;;;6.5;;
6561;SDS011;3314;50.890;4.722;2022-12-07T05:38:15;14.8;;;6.1;;
6561;SDS011;3314;50.890;4.722;2022-12-07T05:40:15;14.9;;;6.3;;
6561;SDS011;3314;50.890;4.722;2022-12-07T05:42:15;16.8;;;6.3;;
6561;SDS011;3314;50.890;4.722;2022-12-07T05:44:14;14.8;;;5.5;;
6561;SDS011;3314;50.890;4.722;2022-12-07T05:46:14;17.9;;;7.3;;
6561;SDS011;3314;50.890;4.722;2022-12-07T05:48:14;16.6;;;6.4;;
6561;SDS011;3314;50.890;4.722;2022-12-07T05:50:13;14.1;;;5.7;;
6561;SDS011;3314;50.890;4.722;2022-12-07T05:52:13;20.3;;;7.2;;
6561;SDS011;3314;50.890;4.722;2022-12-07T05:54:13;17.0;;;6.5;;
6561;SDS011;3314;50.890;4.722;2022-12-07T05:56:12;14.5;;;6.2;;
6561;SDS011;3314;50.890;4.722;2022-12-07T06:00:19;16.6;;;6.3;;
6561;SDS011;3314;50.890;4.722;2022-12-07T06:00:31;13.2;;;6.3;;
6561;SDS011;3314;50.890;4.722;2022-12-07T06:02:07;20.5;;;7.2;;
6561;SDS011;3314;50.890;4.722;2022-12-07T06:04:07;16.2;;;7.0;;
6561;SDS011;3314;50.890;4.722;2022-12-07T06:06:07;14.3;;;6.3;;
6561;SDS011;3314;50.890;4.722;2022-12-07T06:08:06;18.3;;;6.5;;
6561;SDS011;3314;50.890;4.722;2022-12-07T06:10:06;19.4;;;6.3;;
6561;SDS011;3314;50.890;4.722;2022-12-07T06:12:39;16.7;;;7.4;;
6561;SDS011;3314;50.890;4.722;2022-12-07T06:14:03;19.4;;;6.6;;
6561;SDS011;3314;50.890;4.722;2022-12-07T06:16:03;17.2;;;6.2;;
6561;SDS011;3314;50.890;4.722;2022-12-07T06:18:03;21.8;;;6.6;;
6561;SDS011;3314;50.890;4.722;2022-12-07T06:20:05;15.7;;;6.5;;
6561;SDS011;3314;50.890;4.722;2022-12-07T06:22:05;17.0;;;6.4;;
6561;SDS011;3314;50.890;4.722;2022-12-07T06:24:05;13.7;;;6.5;;
6561;SDS011;3314;50.890;4.722;2022-12-07T06:26:04;15.4;;;6.5;;
6561;SDS011;3314;50.890;4.722;2022-12-07T06:28:04;17.1;;;6.2;;
6561;SDS011;3314;50.890;4.722;2022-12-07T06:30:07;14.6;;;6.7;;
6561;SDS011;3314;50.890;4.722;2022-12-07T06:32:06;12.6;;;5.7;;
6561;SDS011;3314;50.890;4.722;2022-12-07T06:34:08;13.8;;;5.5;;
6561;SDS011;3314;50.890;4.722;2022-12-07T06:35:56;15.1;;;5.2;;
6561;SDS011;3314;50.890;4.722;2022-12-07T06:37:56;15.2;;;5.7;;
6561;SDS011;3314;50.890;4.722;2022-12-07T06:39:56;12.0;;;5.4;;
6561;SDS011;3314;50.890;4.722;2022-12-07T06:41:56;13.7;;;6.2;;
6561;SDS011;3314;50.890;4.722;2022-12-07T06:43:56;14.8;;;6.4;;
6561;SDS011;3314;50.890;4.722;2022-12-07T06:45:55;14.3;;;5.8;;
6561;SDS011;3314;50.890;4.722;2022-12-07T06:47:55;15.2;;;5.7;;
6561;SDS011;3314;50.890;4.722;2022-12-07T06:49:55;16.4;;;5.7;;
6561;SDS011;3314;50.890;4.722;2022-12-07T06:51:54;13.0;;;6.3;;
6561;SDS011;3314;50.890;4.722;2022-12-07T06:53:54;19.4;;;6.2;;
6561;SDS011;3314;50.890;4.722;2022-12-07T06:55:54;17.1;;;5.7;;
6561;SDS011;3314;50.890;4.722;2022-12-07T06:57:54;16.5;;;6.0;;
6561;SDS011;3314;50.890;4.722;2022-12-07T06:59:54;15.1;;;6.0;;
6561;SDS011;3314;50.890;4.722;2022-12-07T07:01:53;15.8;;;6.1;;
6561;SDS011;3314;50.890;4.722;2022-12-07T07:03:53;15.3;;;6.7;;
6561;SDS011;3314;50.890;4.722;2022-12-07T07:05:53;17.2;;;6.3;;
6561;SDS011;3314;50.890;4.722;2022-12-07T07:07:52;14.6;;;5.7;;
6561;SDS011;3314;50.890;4.722;2022-12-07T07:09:52;15.9;;;6.4;;
6561;SDS011;3314;50.890;4.722;2022-12-07T07:11:52;13.8;;;5.4;;
6561;SDS011;3314;50.890;4.722;2022-12-07T07:13:51;15.1;;;5.9;;
6561;SDS011;3314;50.890;4.722;2022-12-07T07:15:51;17.9;;;5.9;;
6561;SDS011;3314;50.890;4.722;2022-12-07T07:17:51;16.9;;;6.3;;
6561;SDS011;3314;50.890;4.722;2022-12-07T07:19:51;18.7;;;6.2;;
6561;SDS011;3314;50.890;4.722;2022-12-07T07:21:50;15.8;;;6.5;;
6561;SDS011;3314;50.890;4.722;2022-12-07T07:23:50;20.8;;;5.7;;
6561;SDS011;3314;50.890;4.722;2022-12-07T07:25:50;15.7;;;6.5;;
6561;SDS011;3314;50.890;4.722;2022-12-07T07:27:49;16.8;;;6.2;;
6561;SDS011;3314;50.890;4.722;2022-12-07T07:29:49;18.8;;;6.3;;
6561;SDS011;3314;50.890;4.722;2022-12-07T07:31:49;17.1;;;7.2;;
6561;SDS011;3314;50.890;4.722;2022-12-07T07:33:48;16.3;;;6.0;;
6561;SDS011;3314;50.890;4.722;2022-12-07T07:35:48;16.9;;;6.5;;
6561;SDS011;3314;50.890;4.722;2022-12-07T07:37:47;16.2;;;5.9;;
6561;SDS011;3314;50.890;4.722;2022-12-07T07:39:47;17.1;;;6.6;;
6561;SDS011;3314;50.890;4.722;2022-12-07T07:41:47;19.0;;;7.3;;
6561;SDS011;3314;50.890;4.722;2022-12-07T07:43:46;16.5;;;6.1;;
6561;SDS011;3314;50.890;4.722;2022-12-07T07:45:46;22.1;;;6.0;;
6561;SDS011;3314;50.890;4.722;2022-12-07T07:47:46;18.1;;;5.8;;
6561;SDS011;3314;50.890;4.722;2022-12-07T07:49:45;16.9;;;6.0;;
6561;SDS011;3314;50.890;4.722;2022-12-07T07:51:45;16.8;;;5.7;;
6561;SDS011;3314;50.890;4.722;2022-12-07T07:53:45;16.1;;;5.7;;
6561;SDS011;3314;50.890;4.722;2022-12-07T07:55:50;19.1;;;5.4;;
6561;SDS011;3314;50.890;4.722;2022-12-07T07:57:39;18.0;;;5.1;;
6561;SDS011;3314;50.890;4.722;2022-12-07T07:59:39;16.6;;;5.9;;
6561;SDS011;3314;50.890;4.722;2022-12-07T08:01:38;13.3;;;4.8;;
6561;SDS011;3314;50.890;4.722;2022-12-07T08:03:38;16.7;;;5.7;;
6561;SDS011;3314;50.890;4.722;2022-12-07T08:05:38;16.6;;;5.5;;
6561;SDS011;3314;50.890;4.722;2022-12-07T08:07:38;21.2;;;5.0;;
6561;SDS011;3314;50.890;4.722;2022-12-07T08:09:37;12.4;;;5.3;;
6561;SDS011;3314;50.890;4.722;2022-12-07T08:11:37;17.2;;;5.0;;
6561;SDS011;3314;50.890;4.722;2022-12-07T08:13:37;15.8;;;4.8;;
6561;SDS011;3314;50.890;4.722;2022-12-07T08:15:37;14.0;;;5.8;;
6561;SDS011;3314;50.890;4.722;2022-12-07T08:17:37;18.7;;;5.8;;
6561;SDS011;3314;50.890;4.722;2022-12-07T08:19:37;17.5;;;4.8;;
6561;SDS011;3314;50.890;4.722;2022-12-07T08:21:37;13.7;;;5.7;;
6561;SDS011;3314;50.890;4.722;2022-12-07T08:23:37;17.0;;;5.3;;
6561;SDS011;3314;50.890;4.722;2022-12-07T08:25:36;12.0;;;4.8;;
6561;SDS011;3314;50.890;4.722;2022-12-07T08:27:36;13.5;;;5.1;;
6561;SDS011;3314;50.890;4.722;2022-12-07T08:29:36;14.7;;;5.1;;
6561;SDS011;3314;50.890;4.722;2022-12-07T08:31:35;14.5;;;5.4;;
6561;SDS011;3314;50.890;4.722;2022-12-07T08:33:35;16.9;;;4.7;;
6561;SDS011;3314;50.890;4.722;2022-12-07T08:35:35;15.2;;;5.2;;
6561;SDS011;3314;50.890;4.722;2022-12-07T08:37:35;12.8;;;5.3;;
6561;SDS011;3314;50.890;4.722;2022-12-07T08:39:35;13.0;;;5.5;;
6561;SDS011;3314;50.890;4.722;2022-12-07T08:41:35;13.3;;;5.7;;
6561;SDS011;3314;50.890;4.722;2022-12-07T08:43:35;14.3;;;5.0;;
6561;SDS011;3314;50.890;4.722;2022-12-07T08:45:36;12.1;;;4.6;;
6561;SDS011;3314;50.890;4.722;2022-12-07T08:47:36;14.9;;;5.7;;
6561;SDS011;3314;50.890;4.722;2022-12-07T08:49:37;14.7;;;6.0;;
6561;SDS011;3314;50.890;4.722;2022-12-07T08:51:27;14.6;;;5.4;;
6561;SDS011;3314;50.890;4.722;2022-12-07T08:53:27;13.9;;;5.3;;
6561;SDS011;3314;50.890;4.722;2022-12-07T08:55:27;12.4;;;5.5;;
6561;SDS011;3314;50.890;4.722;2022-12-07T08:57:28;15.2;;;5.4;;
6561;SDS011;3314;50.890;4.722;2022-12-07T08:59:28;13.7;;;5.3;;
6561;SDS011;3314;50.890;4.722;2022-12-07T09:01:28;15.0;;;5.2;;
6561;SDS011;3314;50.890;4.722;2022-12-07T09:03:28;12.7;;;4.5;;
6561;SDS011;3314;50.890;4.722;2022-12-07T09:05:27;16.5;;;5.4;;
6561;SDS011;3314;50.890;4.722;2022-12-07T09:07:27;16.2;;;5.2;;
6561;SDS011;3314;50.890;4.722;2022-12-07T09:09:28;12.3;;;5.0;;
6561;SDS011;3314;50.890;4.722;2022-12-07T09:11:28;13.7;;;4.8;;
6561;SDS011;3314;50.890;4.722;2022-12-07T09:13:28;17.3;;;6.3;;
6561;SDS011;3314;50.890;4.722;2022-12-07T09:15:28;14.0;;;4.7;;
6561;SDS011;3314;50.890;4.722;2022-12-07T09:17:28;16.2;;;5.5;;
6561;SDS011;3314;50.890;4.722;2022-12-07T09:19:21;16.5;;;5.7;;
6561;SDS011;3314;50.890;4.722;2022-12-07T09:21:20;17.6;;;5.8;;
6561;SDS011;3314;50.890;4.722;2022-12-07T09:23:20;17.3;;;5.4;;
6561;SDS011;3314;50.890;4.722;2022-12-07T09:25:20;16.5;;;6.0;;
6561;SDS011;3314;50.890;4.722;2022-12-07T09:27:19;16.6;;;5.7;;
6561;SDS011;3314;50.890;4.722;2022-12-07T09:29:19;17.2;;;5.7;;
6561;SDS011;3314;50.890;4.722;2022-12-07T09:31:19;16.0;;;5.8;;
6561;SDS011;3314;50.890;4.722;2022-12-07T09:33:18;14.7;;;5.9;;
6561;SDS011;3314;50.890;4.722;2022-12-07T09:35:18;13.1;;;5.6;;
6561;SDS011;3314;50.890;4.722;2022-12-07T09:37:18;15.3;;;5.4;;
6561;SDS011;3314;50.890;4.722;2022-12-07T09:39:17;14.8;;;5.0;;
6561;SDS011;3314;50.890;4.722;2022-12-07T09:41:18;16.0;;;4.8;;
6561;SDS011;3314;50.890;4.722;2022-12-07T09:43:18;19.4;;;5.7;;
6561;SDS011;3314;50.890;4.722;2022-12-07T09:45:19;14.2;;;5.2;;
6561;SDS011;3314;50.890;4.722;2022-12-07T09:47:20;11.5;;;4.9;;
6561;SDS011;3314;50.890;4.722;2022-12-07T09:49:20;15.0;;;5.6;;
6561;SDS011;3314;50.890;4.722;2022-12-07T09:51:21;12.0;;;4.9;;
6561;SDS011;3314;50.890;4.722;2022-12-07T09:53:23;14.2;;;4.8;;
6561;SDS011;3314;50.890;4.722;2022-12-07T09:55:14;14.8;;;5.1;;
6561;SDS011;3314;50.890;4.722;2022-12-07T09:57:14;14.5;;;5.3;;
6561;SDS011;3314;50.890;4.722;2022-12-07T09:59:26;17.7;;;5.3;;
6561;SDS011;3314;50.890;4.722;2022-12-07T10:01:14;17.1;;;5.5;;
6561;SDS011;3314;50.890;4.722;2022-12-07T10:03:14;14.2;;;5.5;;
6561;SDS011;3314;50.890;4.722;2022-12-07T10:05:14;14.7;;;5.0;;
6561;SDS011;3314;50.890;4.722;2022-12-07T10:07:14;13.7;;;5.2;;
6561;SDS011;3314;50.890;4.722;2022-12-07T10:09:15;13.9;;;5.1;;
6561;SDS011;3314;50.890;4.722;2022-12-07T10:11:16;13.5;;;5.6;;
6561;SDS011;3314;50.890;4.722;2022-12-07T10:13:18;16.5;;;5.0;;
6561;SDS011;3314;50.890;4.722;2022-12-07T10:15:18;11.9;;;5.0;;
6561;SDS011;3314;50.890;4.722;2022-12-07T10:17:28;13.7;;;5.0;;
6561;SDS011;3314;50.890;4.722;2022-12-07T10:19:18;12.9;;;4.6;;
6561;SDS011;3314;50.890;4.722;2022-12-07T10:21:10;11.8;;;4.2;;
6561;SDS011;3314;50.890;4.722;2022-12-07T10:23:13;19.6;;;4.7;;
6561;SDS011;3314;50.890;4.722;2022-12-07T10:25:16;21.1;;;5.7;;
6561;SDS011;3314;50.890;4.722;2022-12-07T10:27:16;13.3;;;4.9;;
6561;SDS011;3314;50.890;4.722;2022-12-07T10:29:14;14.7;;;5.3;;
6561;SDS011;3314;50.890;4.722;2022-12-07T10:31:15;22.7;;;5.9;;
6561;SDS011;3314;50.890;4.722;2022-12-07T10:33:23;12.5;;;4.7;;
6561;SDS011;3314;50.890;4.722;2022-12-07T10:35:23;12.9;;;4.5;;
6561;SDS011;3314;50.890;4.722;2022-12-07T10:37:15;15.4;;;5.1;;
6561;SDS011;3314;50.890;4.722;2022-12-07T10:39:10;14.1;;;4.7;;
6561;SDS011;3314;50.890;4.722;2022-12-07T10:41:10;12.9;;;4.8;;
6561;SDS011;3314;50.890;4.722;2022-12-07T10:43:17;14.7;;;5.6;;
6561;SDS011;3314;50.890;4.722;2022-12-07T10:45:07;16.3;;;4.9;;
6561;SDS011;3314;50.890;4.722;2022-12-07T10:47:29;12.7;;;5.5;;
6561;SDS011;3314;50.890;4.722;2022-12-07T10:49:10;13.3;;;5.1;;
6561;SDS011;3314;50.890;4.722;2022-12-07T10:51:05;17.9;;;5.2;;
6561;SDS011;3314;50.890;4.722;2022-12-07T10:53:14;12.4;;;4.5;;
6561;SDS011;3314;50.890;4.722;2022-12-07T10:55:10;10.9;;;4.1;;
6561;SDS011;3314;50.890;4.722;2022-12-07T10:57:03;15.5;;;4.4;;
6561;SDS011;3314;50.890;4.722;2022-12-07T10:59:14;9.7;;;3.9;;
6561;SDS011;3314;50.890;4.722;2022-12-07T11:01:09;12.6;;;3.9;;
6561;SDS011;3314;50.890;4.722;2022-12-07T11:03:04;17.4;;;4.6;;
6561;SDS011;3314;50.890;4.722;2022-12-07T11:05:13;10.6;;;3.5;;
6561;SDS011;3314;50.890;4.722;2022-12-07T11:07:06;14.9;;;3.5;;
6561;SDS011;3314;50.890;4.722;2022-12-07T11:09:16;18.7;;;4.1;;
6561;SDS011;3314;50.890;4.722;2022-12-07T11:11:02;13.9;;;2.9;;
6561;SDS011;3314;50.890;4.722;2022-12-07T11:13:13;15.2;;;3.5;;
6561;SDS011;3314;50.890;4.722;2022-12-07T11:15:04;10.1;;;2.8;;
6561;SDS011;3314;50.890;4.722;2022-12-07T11:16:58;13.4;;;3.1;;
6561;SDS011;3314;50.890;4.722;2022-12-07T11:19:06;11.8;;;3.0;;
6561;SDS011;3314;50.890;4.722;2022-12-07T11:20:59;9.6;;;3.0;;
6561;SDS011;3314;50.890;4.722;2022-12-07T11:23:01;11.6;;;3.2;;
6561;SDS011;3314;50.890;4.722;2022-12-07T11:25:09;9.3;;;3.2;;
6561;SDS011;3314;50.890;4.722;2022-12-07T11:27:06;12.7;;;3.6;;
6561;SDS011;3314;50.890;4.722;2022-12-07T11:29:00;12.9;;;3.1;;
6561;SDS011;3314;50.890;4.722;2022-12-07T11:31:05;14.2;;;3.5;;
6561;SDS011;3314;50.890;4.722;2022-12-07T11:32:59;11.1;;;3.2;;
6561;SDS011;3314;50.890;4.722;2022-12-07T11:35:04;11.7;;;3.2;;
6561;SDS011;3314;50.890;4.722;2022-12-07T11:36:53;8.8;;;2.9;;
6561;SDS011;3314;50.890;4.722;2022-12-07T11:38:54;13.6;;;3.0;;
6561;SDS011;3314;50.890;4.722;2022-12-07T11:40:55;14.6;;;4.7;;
6561;SDS011;3314;50.890;4.722;2022-12-07T11:42:59;14.1;;;4.0;;
6561;SDS011;3314;50.890;4.722;2022-12-07T11:45:00;10.1;;;3.6;;
6561;SDS011;3314;50.890;4.722;2022-12-07T11:47:02;10.3;;;3.2;;
6561;SDS011;3314;50.890;4.722;2022-12-07T11:48:55;13.0;;;3.4;;
6561;SDS011;3314;50.890;4.722;2022-12-07T11:50:57;13.9;;;3.0;;
6561;SDS011;3314;50.890;4.722;2022-12-07T11:52:58;15.3;;;2.9;;
6561;SDS011;3314;50.890;4.722;2022-12-07T11:54:50;16.2;;;3.8;;
6561;SDS011;3314;50.890;4.722;2022-12-07T11:56:51;10.4;;;3.0;;
6561;SDS011;3314;50.890;4.722;2022-12-07T11:58:54;13.2;;;3.6;;
6561;SDS011;3314;50.890;4.722;2022-12-07T12:00:55;17.0;;;4.0;;
6561;SDS011;3314;50.890;4.722;2022-12-07T12:02:49;10.7;;;4.0;;
6561;SDS011;3314;50.890;4.722;2022-12-07T12:04:54;9.3;;;3.1;;
6561;SDS011;3314;50.890;4.722;2022-12-07T12:06:54;13.7;;;3.7;;
6561;SDS011;3314;50.890;4.722;2022-12-07T12:08:55;9.2;;;3.2;;
6561;SDS011;3314;50.890;4.722;2022-12-07T12:10:58;10.9;;;3.1;;
6561;SDS011;3314;50.890;4.722;2022-12-07T12:12:52;16.8;;;3.6;;
6561;SDS011;3314;50.890;4.722;2022-12-07T12:14:59;14.4;;;3.6;;
6561;SDS011;3314;50.890;4.722;2022-12-07T12:16:54;13.3;;;3.3;;
6561;SDS011;3314;50.890;4.722;2022-12-07T12:18:49;10.8;;;3.4;;
6561;SDS011;3314;50.890;4.722;2022-12-07T12:20:50;12.9;;;3.7;;
6561;SDS011;3314;50.890;4.722;2022-12-07T12:22:52;10.9;;;4.0;;
6561;SDS011;3314;50.890;4.722;2022-12-07T12:24:43;16.0;;;3.7;;
6561;SDS011;3314;50.890;4.722;2022-12-07T12:26:48;12.4;;;3.9;;
6561;SDS011;3314;50.890;4.722;2022-12-07T12:28:51;11.3;;;3.6;;
6561;SDS011;3314;50.890;4.722;2022-12-07T12:30:42;14.2;;;4.4;;
6561;SDS011;3314;50.890;4.722;2022-12-07T12:32:42;18.5;;;3.6;;
6561;SDS011;3314;50.890;4.722;2022-12-07T12:34:57;13.3;;;4.0;;